createdAt,value
2018-11-13T00:00:22.945Z,14.20
2018-11-13T00:02:52.503Z,14.30
2018-11-13T00:05:22.434Z,14.00
2018-11-13T00:07:51.440Z,13.80
2018-11-13T00:10:20.405Z,13.80
2018-11-13T00:12:49.370Z,13.80
2018-11-13T00:15:18.497Z,13.70
2018-11-13T00:17:47.495Z,13.80
2018-11-13T00:20:17.578Z,13.90
2018-11-13T00:22:47.581Z,13.80
2018-11-13T00:25:19.075Z,13.70
2018-11-13T00:27:48.039Z,13.70
2018-11-13T00:30:22.332Z,13.50
2018-11-13T00:32:51.679Z,13.60
2018-11-13T00:35:21.210Z,13.60
2018-11-13T00:37:50.613Z,13.70
2018-11-13T00:40:19.696Z,13.70
2018-11-13T00:42:49.195Z,13.40
2018-11-13T00:45:18.289Z,13.10
2018-11-13T00:47:47.175Z,12.70
2018-11-13T00:50:17.372Z,12.40
2018-11-13T00:52:46.903Z,12.40
2018-11-13T00:55:16.085Z,12.40
2018-11-13T00:57:45.180Z,12.50
2018-11-13T01:00:16.036Z,12.60
2018-11-13T01:02:45.231Z,12.60
2018-11-13T01:05:15.592Z,13.00
2018-11-13T01:07:45.646Z,13.10
2018-11-13T01:10:15.784Z,13.40
2018-11-13T01:12:45.490Z,13.30
2018-11-13T01:15:15.411Z,13.30
2018-11-13T01:17:45.253Z,13.20
2018-11-13T01:20:14.964Z,13.20
2018-11-13T01:22:43.949Z,13.30
2018-11-13T01:25:13.896Z,13.20
2018-11-13T01:27:43.430Z,13.10
2018-11-13T01:30:13.234Z,13.10
2018-11-13T01:32:42.871Z,13.00
2018-11-13T01:35:13.217Z,13.00
2018-11-13T01:37:42.211Z,13.00
2018-11-13T01:40:20.471Z,13.00
2018-11-13T01:42:49.426Z,13.10
2018-11-13T01:45:19.448Z,13.10
2018-11-13T01:47:48.417Z,13.10
2018-11-13T01:50:17.829Z,12.90
2018-11-13T01:52:46.765Z,12.90
2018-11-13T01:55:16.222Z,12.80
2018-11-13T01:57:45.231Z,12.80
2018-11-13T02:00:17.328Z,12.90
2018-11-13T02:02:47.747Z,13.00
2018-11-13T02:05:17.641Z,12.80
2018-11-13T02:07:46.700Z,12.90
2018-11-13T02:10:15.918Z,12.70
2018-11-13T02:12:45.282Z,12.60
2018-11-13T02:15:14.244Z,12.50
2018-11-13T02:17:43.486Z,12.60
2018-11-13T02:20:15.371Z,12.70
2018-11-13T02:22:44.855Z,13.10
2018-11-13T02:25:17.236Z,13.30
2018-11-13T02:27:46.514Z,13.20
2018-11-13T02:30:17.286Z,13.10
2018-11-13T02:32:46.793Z,13.00
2018-11-13T02:35:16.192Z,13.00
2018-11-13T02:37:45.255Z,13.00
2018-11-13T02:40:14.471Z,13.10
2018-11-13T02:42:43.441Z,13.00
2018-11-13T02:45:14.112Z,13.00
2018-11-13T02:47:43.311Z,13.00
2018-11-13T02:50:14.487Z,12.80
2018-11-13T02:52:43.515Z,12.70
2018-11-13T02:55:13.676Z,12.50
2018-11-13T02:57:43.253Z,12.40
2018-11-13T03:00:15.111Z,12.40
2018-11-13T03:02:44.200Z,12.40
2018-11-13T03:05:14.370Z,12.50
2018-11-13T03:07:43.288Z,12.50
2018-11-13T03:10:13.671Z,12.50
2018-11-13T03:12:42.657Z,12.60
2018-11-13T03:15:13.388Z,12.50
2018-11-13T03:17:42.466Z,12.90
2018-11-13T03:20:13.407Z,12.90
2018-11-13T03:22:42.939Z,12.80
2018-11-13T03:25:14.852Z,12.70
2018-11-13T03:27:43.792Z,12.90
2018-11-13T03:30:28.566Z,12.90
2018-11-13T03:32:57.513Z,13.40
2018-11-13T03:35:26.517Z,13.40
2018-11-13T03:37:55.512Z,13.30
2018-11-13T03:40:24.502Z,13.20
2018-11-13T03:42:53.470Z,13.10
2018-11-13T03:45:22.405Z,13.10
2018-11-13T03:47:51.396Z,13.20
2018-11-13T03:50:21.619Z,13.40
2018-11-13T03:52:50.746Z,13.70
2018-11-13T03:55:20.318Z,13.70
2018-11-13T03:57:49.853Z,13.70
2018-11-13T04:00:20.080Z,13.50
2018-11-13T04:02:49.058Z,13.50
2018-11-13T04:05:18.851Z,13.50
2018-11-13T04:07:49.090Z,13.40
2018-11-13T04:10:18.897Z,13.30
2018-11-13T04:12:48.110Z,13.10
2018-11-13T04:15:19.438Z,13.00
2018-11-13T04:17:48.457Z,13.00
2018-11-13T04:20:18.665Z,12.80
2018-11-13T04:22:47.979Z,12.60
2018-11-13T04:25:16.958Z,12.90
2018-11-13T04:27:45.969Z,12.90
2018-11-13T04:30:16.053Z,12.70
2018-11-13T04:32:45.053Z,13.20
2018-11-13T04:35:15.168Z,13.10
2018-11-13T04:37:44.133Z,13.30
2018-11-13T04:40:14.421Z,13.20
2018-11-13T04:42:45.653Z,13.10
2018-11-13T04:45:15.855Z,12.90
2018-11-13T04:47:46.007Z,13.00
2018-11-13T04:50:16.044Z,13.10
2018-11-13T04:52:45.109Z,13.20
2018-11-13T04:55:14.353Z,13.40
2018-11-13T04:57:44.120Z,13.50
2018-11-13T05:00:15.660Z,13.30
2018-11-13T05:02:45.494Z,13.30
2018-11-13T05:05:15.526Z,13.10
2018-11-13T05:07:47.678Z,13.40
2018-11-13T05:10:16.725Z,13.40
2018-11-13T05:12:46.448Z,13.60
2018-11-13T05:15:15.572Z,13.60
2018-11-13T05:17:45.156Z,13.60
2018-11-13T05:20:15.236Z,13.50
2018-11-13T05:22:44.191Z,13.40
2018-11-13T05:25:15.897Z,12.90
2018-11-13T05:27:45.334Z,13.00
2018-11-13T05:30:15.694Z,13.10
2018-11-13T05:32:44.712Z,12.90
2018-11-13T05:35:15.001Z,12.80
2018-11-13T05:37:44.588Z,12.80
2018-11-13T05:40:15.462Z,13.30
2018-11-13T05:42:44.400Z,13.20
2018-11-13T05:45:18.928Z,13.30
2018-11-13T05:47:47.874Z,13.40
2018-11-13T05:50:17.675Z,13.20
2018-11-13T05:52:47.872Z,13.20
2018-11-13T05:55:17.203Z,13.30
2018-11-13T05:57:46.300Z,13.40
2018-11-13T06:00:17.358Z,12.90
2018-11-13T06:02:46.347Z,12.30
2018-11-13T06:05:15.314Z,12.40
2018-11-13T06:07:44.267Z,12.80
2018-11-13T06:10:13.808Z,12.80
2018-11-13T06:12:43.003Z,12.90
2018-11-13T06:15:12.325Z,12.70
2018-11-13T06:17:41.351Z,12.60
2018-11-13T06:20:11.748Z,12.50
2018-11-13T06:22:40.696Z,12.50
2018-11-13T06:25:11.769Z,12.60
2018-11-13T06:27:41.973Z,12.60
2018-11-13T06:30:18.021Z,12.60
2018-11-13T06:32:47.532Z,12.80
2018-11-13T06:35:16.557Z,12.70
2018-11-13T06:37:45.758Z,12.80
2018-11-13T06:40:14.739Z,12.80
2018-11-13T06:42:43.771Z,12.80
2018-11-13T06:45:15.944Z,12.70
2018-11-13T06:47:45.687Z,12.70
2018-11-13T06:50:14.680Z,12.70
2018-11-13T06:52:44.510Z,12.70
2018-11-13T06:55:19.147Z,13.00
2018-11-13T06:57:48.076Z,13.10
2018-11-13T07:00:17.099Z,13.30
2018-11-13T07:02:46.088Z,13.00
2018-11-13T07:05:16.629Z,12.90
2018-11-13T07:07:47.836Z,13.10
2018-11-13T07:10:18.123Z,13.30
2018-11-13T07:12:48.279Z,13.30
2018-11-13T07:15:19.499Z,13.00
2018-11-13T07:17:50.208Z,12.90
2018-11-13T07:20:20.353Z,13.20
2018-11-13T07:22:49.317Z,13.20
2018-11-13T07:25:18.806Z,13.10
2018-11-13T07:27:47.773Z,13.10
2018-11-13T07:30:17.970Z,12.90
2018-11-13T07:32:46.962Z,12.90
2018-11-13T07:35:17.099Z,12.90
2018-11-13T07:37:47.729Z,13.10
2018-11-13T07:40:16.754Z,13.30
2018-11-13T07:42:45.763Z,13.20
2018-11-13T07:45:15.285Z,13.40
2018-11-13T07:47:45.575Z,13.30
2018-11-13T07:50:14.906Z,13.20
2018-11-13T07:52:43.962Z,13.00
2018-11-13T07:55:13.924Z,12.90
2018-11-13T07:57:42.938Z,13.00
2018-11-13T08:00:16.735Z,13.00
2018-11-13T08:02:47.169Z,13.20
2018-11-13T08:05:16.165Z,13.10
2018-11-13T08:07:45.177Z,12.60
2018-11-13T08:10:14.322Z,12.50
2018-11-13T08:12:43.560Z,12.80
2018-11-13T08:15:13.850Z,13.00
2018-11-13T08:17:43.074Z,13.10
2018-11-13T08:20:13.610Z,13.30
2018-11-13T08:22:43.113Z,13.40
2018-11-13T08:25:12.458Z,13.00
2018-11-13T08:27:42.286Z,12.90
2018-11-13T08:30:15.176Z,13.40
2018-11-13T08:32:44.756Z,13.50
2018-11-13T08:35:13.852Z,13.50
2018-11-13T08:37:42.939Z,13.50
2018-11-13T08:40:13.511Z,13.00
2018-11-13T08:42:50.025Z,13.00
2018-11-13T08:45:19.186Z,13.30
2018-11-13T08:47:48.141Z,13.40
2018-11-13T08:50:17.168Z,13.40
2018-11-13T08:52:46.907Z,13.50
2018-11-13T08:55:16.080Z,13.40
2018-11-13T08:57:45.299Z,12.70
2018-11-13T09:00:15.709Z,12.40
2018-11-13T09:02:45.236Z,12.50
2018-11-13T09:05:14.339Z,12.40
2018-11-13T09:07:43.237Z,12.30
2018-11-13T09:10:13.323Z,12.80
2018-11-13T09:12:42.852Z,13.10
2018-11-13T09:15:13.562Z,13.10
2018-11-13T09:17:42.628Z,13.40
2018-11-13T09:20:14.005Z,13.30
2018-11-13T09:22:43.017Z,12.90
2018-11-13T09:25:16.187Z,13.40
2018-11-13T09:27:45.164Z,13.60
2018-11-13T09:30:17.883Z,13.50
2018-11-13T09:32:47.143Z,13.40
2018-11-13T09:35:16.882Z,13.40
2018-11-13T09:37:45.866Z,13.50
2018-11-13T09:40:16.502Z,13.50
2018-11-13T09:42:52.069Z,13.20
2018-11-13T09:45:21.103Z,13.40
2018-11-13T09:47:50.143Z,13.40
2018-11-13T09:50:20.249Z,13.60
2018-11-13T09:52:50.580Z,13.60
2018-11-13T09:55:20.917Z,13.40
2018-11-13T09:57:49.972Z,13.40
2018-11-13T10:00:24.455Z,12.80
2018-11-13T10:02:56.297Z,13.30
2018-11-13T10:05:24.779Z,13.20
2018-11-13T10:07:54.209Z,13.30
2018-11-13T10:10:23.506Z,13.40
2018-11-13T10:12:52.504Z,13.30
2018-11-13T10:15:29.925Z,13.50
2018-11-13T10:17:59.422Z,13.60
2018-11-13T10:20:28.355Z,13.50
2018-11-13T10:22:58.200Z,13.70
2018-11-13T10:25:27.155Z,13.90
2018-11-13T10:27:56.113Z,14.00
2018-11-13T10:30:25.594Z,14.00
2018-11-13T10:32:55.048Z,14.00
2018-11-13T10:35:25.114Z,14.10
2018-11-13T10:37:54.051Z,14.20
2018-11-13T10:40:23.559Z,14.50
2018-11-13T10:42:53.070Z,14.20
2018-11-13T10:45:24.673Z,14.20
2018-11-13T10:47:53.670Z,14.00
2018-11-13T10:50:23.810Z,14.10
2018-11-13T10:52:52.764Z,13.90
2018-11-13T10:55:21.716Z,13.80
2018-11-13T10:57:50.664Z,14.00
2018-11-13T11:00:25.052Z,14.00
2018-11-13T11:02:58.379Z,13.90
2018-11-13T11:05:28.161Z,14.00
2018-11-13T11:07:57.665Z,14.10
2018-11-13T11:10:26.703Z,14.20
2018-11-13T11:12:55.842Z,13.70
2018-11-13T11:15:24.733Z,13.90
2018-11-13T11:17:53.697Z,13.90
2018-11-13T11:20:22.668Z,14.10
2018-11-13T11:22:51.702Z,13.80
2018-11-13T11:25:20.796Z,14.00
2018-11-13T11:27:49.672Z,14.20
2018-11-13T11:30:18.665Z,14.40
2018-11-13T11:32:47.608Z,14.40
2018-11-13T11:35:16.572Z,14.40
2018-11-13T11:37:45.558Z,14.10
2018-11-13T11:40:14.541Z,14.10
2018-11-13T11:42:43.525Z,14.20
2018-11-13T11:45:13.700Z,14.40
2018-11-13T11:47:42.923Z,14.70
2018-11-13T11:50:13.029Z,14.60
2018-11-13T11:52:41.952Z,14.80
2018-11-13T11:55:11.738Z,14.90
2018-11-13T11:57:41.485Z,14.90
2018-11-13T12:00:17.867Z,14.80
2018-11-13T12:02:46.827Z,14.80
2018-11-13T12:05:15.821Z,14.80
2018-11-13T12:07:44.897Z,14.90
2018-11-13T12:10:14.281Z,14.80
2018-11-13T12:12:43.224Z,14.70
2018-11-13T12:15:13.188Z,14.70
2018-11-13T12:17:42.689Z,14.60
2018-11-13T12:20:12.929Z,14.80
2018-11-13T12:22:41.973Z,14.60
2018-11-13T12:25:14.680Z,14.60
2018-11-13T12:27:43.622Z,14.50
2018-11-13T12:30:14.920Z,14.60
2018-11-13T12:32:44.435Z,14.70
2018-11-13T12:35:14.566Z,14.70
2018-11-13T12:37:43.549Z,14.90
2018-11-13T12:40:15.264Z,15.00
2018-11-13T12:42:46.515Z,15.10
2018-11-13T12:45:14.076Z,15.10
2018-11-13T12:47:43.633Z,15.20
2018-11-13T12:50:13.532Z,15.20
2018-11-13T12:52:42.564Z,15.20
2018-11-13T12:55:16.124Z,15.10
2018-11-13T12:57:45.168Z,15.00
2018-11-13T13:00:17.445Z,15.00
2018-11-13T13:02:46.462Z,14.90
2018-11-13T13:05:15.407Z,15.00
2018-11-13T13:07:44.482Z,14.90
2018-11-13T13:10:15.411Z,14.70
2018-11-13T13:12:44.421Z,14.90
2018-11-13T13:15:14.734Z,14.90
2018-11-13T13:17:44.057Z,14.80
2018-11-13T13:20:15.250Z,14.70
2018-11-13T13:22:45.106Z,14.60
2018-11-13T13:25:15.348Z,14.50
2018-11-13T13:27:45.000Z,14.70
2018-11-13T13:30:24.538Z,14.70
2018-11-13T13:32:53.520Z,14.60
2018-11-13T13:35:59.016Z,14.50
2018-11-13T13:38:28.055Z,14.30
2018-11-13T13:40:58.308Z,14.20
2018-11-13T13:43:28.151Z,14.30
2018-11-13T13:45:57.062Z,14.70
2018-11-13T13:48:26.067Z,14.70
2018-11-13T13:50:55.064Z,14.30
2018-11-13T13:53:24.936Z,14.50
2018-11-13T13:55:54.117Z,14.60
2018-11-13T13:58:24.053Z,14.50
2018-11-13T14:00:53.426Z,14.40
2018-11-13T14:03:22.328Z,14.10
2018-11-13T14:05:51.311Z,13.70
2018-11-13T14:08:20.540Z,13.60
2018-11-13T14:10:49.475Z,13.20
2018-11-13T14:13:18.437Z,12.90
2018-11-13T14:15:47.393Z,12.90
2018-11-13T14:18:16.355Z,13.10
2018-11-13T14:20:45.362Z,13.10
2018-11-13T14:23:14.309Z,13.50
2018-11-13T14:25:43.272Z,13.50
2018-11-13T14:28:12.203Z,13.30
2018-11-13T14:30:41.186Z,13.10
2018-11-13T14:33:11.381Z,13.20
2018-11-13T14:35:40.406Z,13.10
2018-11-13T14:38:09.342Z,13.20
2018-11-13T14:40:40.533Z,13.30
2018-11-13T14:43:09.821Z,13.20
2018-11-13T14:45:38.774Z,12.90
2018-11-13T14:48:08.463Z,12.70
2018-11-13T14:50:37.703Z,13.00
2018-11-13T14:53:06.945Z,13.10
2018-11-13T14:55:37.980Z,13.00
2018-11-13T14:58:09.838Z,12.90
2018-11-13T15:00:39.244Z,12.80
2018-11-13T15:03:09.653Z,13.00
2018-11-13T15:05:38.610Z,12.90
2018-11-13T15:08:08.446Z,12.70
2018-11-13T15:10:44.456Z,12.50
2018-11-13T15:13:13.962Z,12.70
2018-11-13T15:15:42.933Z,12.70
2018-11-13T15:18:12.228Z,12.50
2018-11-13T15:20:41.417Z,12.40
2018-11-13T15:23:11.335Z,12.50
2018-11-13T15:25:40.388Z,12.40
2018-11-13T15:28:10.066Z,12.30
2018-11-13T15:30:41.443Z,12.40
2018-11-13T15:33:13.672Z,11.90
2018-11-13T15:35:42.723Z,11.80
2018-11-13T15:38:11.709Z,12.00
2018-11-13T15:40:40.692Z,12.10
2018-11-13T15:43:09.684Z,12.10
2018-11-13T15:45:38.621Z,12.30
2018-11-13T15:48:09.065Z,12.30
2018-11-13T15:53:08.740Z,12.40
2018-11-13T15:55:37.720Z,12.40
2018-11-13T15:58:07.088Z,12.20
2018-11-13T16:00:38.200Z,12.30
2018-11-13T16:03:17.075Z,12.10
2018-11-13T16:05:48.243Z,12.10
2018-11-13T16:08:17.258Z,11.90
2018-11-13T16:10:46.204Z,11.90
2018-11-13T16:13:15.162Z,12.10
2018-11-13T16:15:44.483Z,12.10
2018-11-13T16:18:29.118Z,11.90
2018-11-13T16:20:58.633Z,11.90
2018-11-13T16:23:27.586Z,12.00
2018-11-13T16:25:56.567Z,11.90
2018-11-13T16:28:25.580Z,11.90
2018-11-13T16:30:54.672Z,11.80
2018-11-13T16:33:24.948Z,11.60
2018-11-13T16:35:53.932Z,11.70
2018-11-13T16:38:23.073Z,11.80
2018-11-13T16:40:51.847Z,11.80
2018-11-13T16:43:20.813Z,12.00
2018-11-13T16:45:49.757Z,11.70
2018-11-13T16:48:18.833Z,11.80
2018-11-13T16:50:47.663Z,11.70
2018-11-13T16:53:17.256Z,11.70
2018-11-13T16:55:51.428Z,11.80
2018-11-13T16:58:20.414Z,11.60
2018-11-13T17:00:49.508Z,11.60
2018-11-13T17:03:18.568Z,11.50
2018-11-13T17:05:47.569Z,11.60
2018-11-13T17:08:16.567Z,11.40
2018-11-13T17:10:47.373Z,11.40
2018-11-13T17:13:17.482Z,11.40
2018-11-13T17:15:47.874Z,11.40
2018-11-13T17:18:16.810Z,11.40
2018-11-13T17:20:45.799Z,11.60
2018-11-13T17:23:14.851Z,11.60
2018-11-13T17:25:43.867Z,11.40
2018-11-13T17:28:12.830Z,11.20
2018-11-13T17:30:41.806Z,11.10
2018-11-13T17:33:11.307Z,11.30
2018-11-13T17:35:41.703Z,11.30
2018-11-13T17:38:10.783Z,11.60
2018-11-13T17:40:39.636Z,11.60
2018-11-13T17:43:08.939Z,11.40
2018-11-13T17:45:41.128Z,11.50
2018-11-13T17:48:11.189Z,11.30
2018-11-13T17:50:41.268Z,11.10
2018-11-13T17:53:10.731Z,11.00
2018-11-13T17:55:39.961Z,10.90
2018-11-13T17:58:12.347Z,10.80
2018-11-13T18:00:42.601Z,10.80
2018-11-13T18:03:14.024Z,10.80
2018-11-13T18:05:43.413Z,10.80
2018-11-13T18:08:12.800Z,10.80
2018-11-13T18:10:43.569Z,10.70
2018-11-13T18:13:12.515Z,10.70
2018-11-13T18:15:41.534Z,10.60
2018-11-13T18:18:10.926Z,10.50
2018-11-13T18:20:41.843Z,10.60
2018-11-13T18:23:14.210Z,10.80
2018-11-13T18:25:43.671Z,10.80
2018-11-13T18:28:13.324Z,10.60
2018-11-13T18:30:43.100Z,10.50
2018-11-13T18:33:12.133Z,10.10
2018-11-13T18:35:41.272Z,10.20
2018-11-13T18:38:12.047Z,10.10
2018-11-13T18:40:40.986Z,10.20
2018-11-13T18:43:10.496Z,10.20
2018-11-13T18:45:40.838Z,10.40
2018-11-13T18:48:10.845Z,10.40
2018-11-13T18:50:42.903Z,10.70
2018-11-13T18:53:12.084Z,10.50
2018-11-13T18:55:41.236Z,10.60
2018-11-13T18:58:10.175Z,10.90
2018-11-13T19:00:40.338Z,10.80
2018-11-13T19:03:11.883Z,10.80
2018-11-13T19:05:40.952Z,10.70
2018-11-13T19:08:10.418Z,10.90
2018-11-13T19:10:42.629Z,11.00
2018-11-13T19:13:13.173Z,10.80
2018-11-13T19:15:43.899Z,10.80
2018-11-13T19:18:13.203Z,11.00
2018-11-13T19:20:42.200Z,10.90
2018-11-13T19:23:11.146Z,10.90
2018-11-13T19:25:40.601Z,10.90
2018-11-13T19:28:09.556Z,11.30
2018-11-13T19:30:38.579Z,11.20
2018-11-13T19:33:07.530Z,11.00
2018-11-13T19:35:36.735Z,11.00
2018-11-13T19:38:06.386Z,11.00
2018-11-13T19:40:35.900Z,11.20
2018-11-13T19:43:06.565Z,10.80
2018-11-13T19:45:35.549Z,10.50
2018-11-13T19:48:04.692Z,11.00
2018-11-13T19:50:34.917Z,10.50
2018-11-13T19:53:03.957Z,11.00
2018-11-13T19:55:33.441Z,11.00
2018-11-13T19:58:02.430Z,11.20
2018-11-13T20:00:33.773Z,11.20
2018-11-13T20:03:04.135Z,11.10
2018-11-13T20:05:33.330Z,11.10
2018-11-13T20:08:02.319Z,10.90
2018-11-13T20:10:32.602Z,10.80
2018-11-13T20:13:02.779Z,10.80
2018-11-13T20:15:32.548Z,11.00
2018-11-13T20:18:01.573Z,11.20
2018-11-13T20:20:34.043Z,10.80
2018-11-13T20:23:04.252Z,10.70
2018-11-13T20:25:34.044Z,11.10
2018-11-13T20:28:03.133Z,11.00
2018-11-13T20:30:37.484Z,10.70
2018-11-13T20:33:06.653Z,10.70
2018-11-13T20:35:35.590Z,10.40
2018-11-13T20:38:05.704Z,10.10
2018-11-13T20:40:35.806Z,10.20
2018-11-13T20:43:06.329Z,10.70
2018-11-13T20:45:35.298Z,10.60
2018-11-13T20:48:04.356Z,10.80
2018-11-13T20:50:34.211Z,10.80
2018-11-13T20:53:03.345Z,10.70
2018-11-13T20:55:32.272Z,10.50
2018-11-13T20:58:02.061Z,10.70
2018-11-13T21:00:32.234Z,10.70
2018-11-13T21:03:08.100Z,10.60
2018-11-13T21:05:37.077Z,10.60
2018-11-13T21:08:06.119Z,10.40
2018-11-13T21:10:37.001Z,10.40
2018-11-13T21:13:06.448Z,10.30
2018-11-13T21:15:35.427Z,10.50
2018-11-13T21:18:04.416Z,10.50
2018-11-13T21:20:33.371Z,10.30
2018-11-13T21:23:05.695Z,10.80
2018-11-13T21:25:42.528Z,10.90
2018-11-13T21:28:19.581Z,10.70
2018-11-13T21:30:49.057Z,8.20
2018-11-13T21:33:18.190Z,11.00
2018-11-13T21:35:47.145Z,10.90
2018-11-13T21:38:16.103Z,10.80
2018-11-13T21:40:45.767Z,10.70
2018-11-13T21:43:14.733Z,10.70
2018-11-13T21:45:43.691Z,10.60
2018-11-13T21:48:12.769Z,10.60
2018-11-13T21:50:41.732Z,10.40
2018-11-13T21:53:10.733Z,10.40
2018-11-13T21:55:39.811Z,10.30
2018-11-13T21:58:08.772Z,10.30
2018-11-13T22:00:37.733Z,10.30
2018-11-13T22:03:08.105Z,10.30
2018-11-13T22:05:37.457Z,10.20
2018-11-13T22:08:06.647Z,10.10
2018-11-13T22:10:36.211Z,10.10
2018-11-13T22:13:05.263Z,9.90
2018-11-13T22:15:34.290Z,9.90
2018-11-13T22:18:03.276Z,9.90
2018-11-13T22:20:32.236Z,10.00
2018-11-13T22:23:01.436Z,10.10
2018-11-13T22:25:30.429Z,10.00
2018-11-13T22:27:59.891Z,10.00
2018-11-13T22:30:30.026Z,10.00
2018-11-13T22:32:58.956Z,10.20
2018-11-13T22:35:27.933Z,10.00
2018-11-13T22:37:56.974Z,10.00
2018-11-13T22:40:27.366Z,10.10
2018-11-13T22:42:56.708Z,9.90
2018-11-13T22:45:26.946Z,9.80
2018-11-13T22:47:56.264Z,9.90
2018-11-13T22:50:30.580Z,10.00
2018-11-13T22:53:00.208Z,10.40
2018-11-13T22:55:29.235Z,10.10
2018-11-13T22:57:59.374Z,10.00
2018-11-13T23:00:48.493Z,9.80
2018-11-13T23:03:18.298Z,9.90
2018-11-13T23:05:48.209Z,9.80
2018-11-13T23:08:18.516Z,9.80
2018-11-13T23:10:48.457Z,9.90
2018-11-13T23:13:17.400Z,9.90
2018-11-13T23:15:46.378Z,9.80
2018-11-13T23:18:15.325Z,9.90
2018-11-13T23:20:44.382Z,9.80
2018-11-13T23:23:13.355Z,10.10
2018-11-13T23:25:42.324Z,10.20
2018-11-13T23:28:11.398Z,10.10
2018-11-13T23:30:40.315Z,10.10
2018-11-13T23:33:10.365Z,10.20
2018-11-13T23:35:40.195Z,10.60
2018-11-13T23:38:09.182Z,11.00
2018-11-13T23:40:38.197Z,11.20
2018-11-13T23:43:07.250Z,11.20
2018-11-13T23:45:42.701Z,11.10
2018-11-13T23:48:11.648Z,11.10
2018-11-13T23:50:40.625Z,11.00
2018-11-13T23:53:09.558Z,10.70
2018-11-13T23:55:39.318Z,10.90
2018-11-13T23:58:08.265Z,11.10
